Time;durP1;ratioP1;P1;durP2;ratioP2;P2;SDS_P1;SDS_P2;PMS_P1;PMS_P2;Temp;Humidity;BMP_temperature;BMP_pressure;BME280_temperature;BME280_humidity;BME280_pressure;Samples;Min_cycle;Max_cycle;Signal;HPM_P1;HPM_P2
2022/06/08 00:00:44;;;;;;;12.87;7.10;;;13.90;99.90;;;;;;4859774;29;20200;-59
2022/06/08 00:03:17;;;;;;;11.43;7.20;;;13.90;99.90;;;;;;4859690;29;20196;-64
2022/06/08 00:05:43;;;;;;;10.77;7.67;;;13.90;99.90;;;;;;4872051;29;20187;-59
2022/06/08 00:08:09;;;;;;;11.90;7.63;;;13.90;99.90;;;;;;4878158;29;20192;-60
2022/06/08 00:10:36;;;;;;;14.90;8.17;;;13.90;99.90;;;;;;4871743;29;20192;-59
2022/06/08 00:13:01;;;;;;;16.10;8.77;;;13.90;99.90;;;;;;4859660;29;20205;-60
2022/06/08 00:15:27;;;;;;;13.67;8.03;;;13.90;99.90;;;;;;4859485;29;20193;-61
2022/06/08 00:17:53;;;;;;;13.87;8.27;;;13.90;99.90;;;;;;4859539;29;20564;-60
2022/06/08 00:20:19;;;;;;;17.80;8.50;;;13.90;99.90;;;;;;4859241;29;20569;-59
2022/06/08 00:22:45;;;;;;;13.73;8.70;;;13.80;99.90;;;;;;4859500;29;20178;-60
2022/06/08 00:25:12;;;;;;;15.47;9.10;;;13.80;99.90;;;;;;4859247;29;20196;-61
2022/06/08 00:27:38;;;;;;;20.17;9.93;;;13.80;99.90;;;;;;4859549;29;20287;-61
2022/06/08 00:30:06;;;;;;;20.07;10.80;;;13.70;99.90;;;;;;4859247;29;20292;-59
2022/06/08 00:32:32;;;;;;;20.20;11.13;;;13.70;99.90;;;;;;4859105;29;20549;-59
2022/06/08 00:35:00;;;;;;;16.83;10.97;;;13.70;99.90;;;;;;4859295;29;20596;-59
2022/06/08 00:37:26;;;;;;;24.80;12.13;;;13.70;99.90;;;;;;4859039;29;20189;-59
2022/06/08 00:39:52;;;;;;;19.77;12.20;;;13.70;99.90;;;;;;4859196;29;20218;-59
2022/06/08 00:42:19;;;;;;;24.40;12.67;;;13.80;99.90;;;;;;4859349;29;20224;-61
2022/06/08 00:44:52;;;;;;;18.80;11.57;;;13.70;99.90;;;;;;4859615;29;20288;-60
2022/06/08 00:47:31;;;;;;;18.23;12.27;;;13.70;99.90;;;;;;4861500;29;20267;-59
2022/06/08 00:50:06;;;;;;;19.80;11.30;;;13.60;99.90;;;;;;4862691;29;20261;-59
2022/06/08 00:52:34;;;;;;;21.57;10.90;;;13.50;99.90;;;;;;4862634;29;20645;-59
2022/06/08 00:55:06;;;;;;;15.27;10.13;;;13.50;99.90;;;;;;4862642;29;20556;-59
2022/06/08 00:57:45;;;;;;;17.37;9.07;;;13.40;99.90;;;;;;4862588;29;20205;-59
2022/06/08 01:00:17;;;;;;;11.90;7.97;;;13.30;99.90;;;;;;4862844;29;20632;-59
2022/06/08 01:02:43;;;;;;;12.30;8.13;;;13.30;99.90;;;;;;4862697;29;20268;-59
2022/06/08 01:05:33;;;;;;;12.23;8.43;;;13.30;99.90;;;;;;4870551;29;20318;-59
2022/06/08 01:08:04;;;;;;;14.07;7.77;;;13.20;99.90;;;;;;4880903;29;20594;-59
2022/06/08 01:10:58;;;;;;;16.23;7.43;;;13.20;99.90;;;;;;4855434;29;20588;-60
2022/06/08 01:13:26;;;;;;;12.20;7.47;;;13.20;99.90;;;;;;4853020;29;20277;-59
2022/06/08 01:15:52;;;;;;;12.33;7.47;;;13.10;99.90;;;;;;4862456;29;20657;-59
2022/06/08 01:18:18;;;;;;;12.80;7.40;;;13.10;99.90;;;;;;4862188;29;20220;-60
2022/06/08 01:20:51;;;;;;;16.93;6.80;;;13.00;99.90;;;;;;4862336;29;20288;-59
2022/06/08 01:23:17;;;;;;;15.80;7.37;;;13.00;99.90;;;;;;4872044;29;20206;-60
2022/06/08 01:26:23;;;;;;;12.03;7.30;;;13.00;99.90;;;;;;4880649;29;20637;-59
2022/06/08 01:29:01;;;;;;;10.57;6.73;;;13.00;99.90;;;;;;4786952;29;20199;-59
2022/06/08 01:31:34;;;;;;;12.53;6.43;;;13.00;99.90;;;;;;4869055;29;20293;-59
2022/06/08 01:34:16;;;;;;;10.00;5.83;;;13.00;99.90;;;;;;4881205;29;20184;-60
2022/06/08 01:37:07;;;;;;;10.03;6.47;;;13.00;99.90;;;;;;4880696;29;20188;-59
2022/06/08 01:39:50;;;;;;;10.03;5.67;;;12.90;99.90;;;;;;4880154;29;20263;-59
2022/06/08 01:42:33;;;;;;;11.20;5.50;;;12.90;99.90;;;;;;4880322;29;20187;-61
2022/06/08 01:45:33;;;;;;;11.60;6.37;;;12.80;99.90;;;;;;4880579;29;20185;-59
2022/06/08 01:48:16;;;;;;;11.87;6.40;;;12.80;99.90;;;;;;4842176;29;20560;-59
2022/06/08 01:50:55;;;;;;;18.30;7.30;;;12.80;99.90;;;;;;4880368;29;20192;-60
2022/06/08 01:53:39;;;;;;;18.17;6.47;;;12.70;99.90;;;;;;4880314;29;20192;-60
2022/06/08 01:56:28;;;;;;;12.80;6.53;;;12.80;99.90;;;;;;4880427;29;20216;-59
2022/06/08 01:58:57;;;;;;;13.10;6.77;;;12.80;99.90;;;;;;4880052;29;20252;-59
2022/06/08 02:01:35;;;;;;;28.37;8.17;;;12.90;99.90;;;;;;4880079;29;20193;-60
2022/06/08 02:04:10;;;;;;;12.87;6.93;;;12.90;99.90;;;;;;4880517;29;20192;-59
2022/06/08 02:06:39;;;;;;;13.27;6.93;;;12.90;99.90;;;;;;4842997;29;20219;-59
2022/06/08 02:09:11;;;;;;;17.10;7.07;;;12.80;99.90;;;;;;4843105;29;20280;-59
2022/06/08 02:11:41;;;;;;;13.47;7.77;;;12.80;99.90;;;;;;4856692;29;20195;-60
2022/06/08 02:14:14;;;;;;;16.80;6.87;;;12.70;99.90;;;;;;4861764;29;20697;-60
2022/06/08 02:17:07;;;;;;;22.70;8.07;;;12.70;99.90;;;;;;4860983;29;20248;-59
2022/06/08 02:19:43;;;;;;;14.73;7.00;;;12.70;99.90;;;;;;4861092;29;20224;-61
2022/06/08 02:22:16;;;;;;;13.60;6.37;;;12.70;99.90;;;;;;4861765;29;20204;-59
2022/06/08 02:24:58;;;;;;;38.47;9.43;;;12.70;99.90;;;;;;4861419;29;20275;-61
2022/06/08 02:27:41;;;;;;;11.93;6.30;;;12.70;99.90;;;;;;4861079;29;20629;-59
2022/06/08 02:30:17;;;;;;;11.37;6.10;;;12.70;99.90;;;;;;4861256;29;20336;-60
2022/06/08 02:35:44;;;;;;;28.60;7.90;;;12.70;99.90;;;;;;4860815;29;20191;-59
2022/06/08 02:38:14;;;;;;;13.40;6.43;;;12.70;99.90;;;;;;4860944;29;20225;-59
2022/06/08 02:40:45;;;;;;;11.47;5.77;;;12.70;99.90;;;;;;4860436;29;20691;-59
2022/06/08 02:43:43;;;;;;;9.27;5.80;;;12.80;99.90;;;;;;4861057;29;20188;-59
2022/06/08 02:46:38;;;;;;;9.20;5.40;;;12.70;99.90;;;;;;4842740;29;20211;-59
2022/06/08 02:49:08;;;;;;;10.63;5.57;;;12.80;99.90;;;;;;4860693;29;20195;-59
2022/06/08 02:51:34;;;;;;;15.63;5.87;;;12.80;99.90;;;;;;4860605;29;20193;-59
2022/06/08 02:54:07;;;;;;;12.47;5.57;;;12.90;99.90;;;;;;4860709;29;20654;-59
2022/06/08 02:57:03;;;;;;;18.57;7.30;;;12.90;99.90;;;;;;4840860;29;20234;-60
2022/06/08 02:59:57;;;;;;;14.63;5.37;;;13.10;99.90;;;;;;4853432;29;20244;-60
2022/06/08 03:02:29;;;;;;;16.43;6.53;;;13.10;99.90;;;;;;4816935;29;20204;-59
2022/06/08 03:04:58;;;;;;;14.63;6.10;;;13.20;99.90;;;;;;4867157;29;20176;-59
2022/06/08 03:07:28;;;;;;;12.60;5.83;;;13.30;99.90;;;;;;4878616;29;20185;-60
2022/06/08 03:09:58;;;;;;;8.60;5.50;;;13.30;99.90;;;;;;4877270;29;20216;-59
2022/06/08 03:12:32;;;;;;;7.20;5.37;;;13.40;99.90;;;;;;4860001;29;20239;-60
2022/06/08 03:15:07;;;;;;;8.30;5.83;;;13.40;99.90;;;;;;4860583;29;20176;-59
2022/06/08 03:17:35;;;;;;;11.33;5.63;;;13.40;99.90;;;;;;4859994;29;20268;-59
2022/06/08 03:20:02;;;;;;;15.30;5.57;;;13.50;99.90;;;;;;4859918;29;20721;-58
2022/06/08 03:22:28;;;;;;;13.77;5.80;;;13.60;99.90;;;;;;4859789;29;20268;-59
2022/06/08 03:24:54;;;;;;;12.90;5.90;;;13.70;99.90;;;;;;4859789;29;20387;-59
2022/06/08 03:27:20;;;;;;;6.97;4.87;;;13.80;99.90;;;;;;4859955;29;20196;-69
2022/06/08 03:29:46;;;;;;;10.27;5.77;;;13.90;99.90;;;;;;4859309;29;20236;-59
2022/06/08 03:32:12;;;;;;;17.40;6.33;;;14.00;99.90;;;;;;4859703;29;20204;-59
2022/06/08 03:34:38;;;;;;;18.40;5.60;;;14.00;99.90;;;;;;4859154;29;20669;-60
2022/06/08 03:37:05;;;;;;;10.80;5.10;;;14.10;99.90;;;;;;4859652;29;20189;-58
2022/06/08 03:39:30;;;;;;;13.93;6.37;;;14.20;99.90;;;;;;4859734;29;20229;-58
2022/06/08 03:41:56;;;;;;;10.33;5.67;;;14.20;99.90;;;;;;4859355;29;20561;-58
2022/06/08 03:44:22;;;;;;;12.97;5.80;;;14.30;99.90;;;;;;4859045;29;20193;-59
2022/06/08 03:46:54;;;;;;;17.17;6.50;;;14.40;99.90;;;;;;4839572;29;20654;-59
2022/06/08 03:49:22;;;;;;;11.43;4.80;;;14.40;99.90;;;;;;4852667;29;20233;-58
2022/06/08 03:51:48;;;;;;;17.03;6.07;;;14.50;99.90;;;;;;4859094;29;20256;-60
2022/06/08 03:54:18;;;;;;;6.80;4.93;;;14.60;99.90;;;;;;4859648;29;20181;-60
2022/06/08 03:56:48;;;;;;;14.30;5.23;;;14.80;99.90;;;;;;4859197;29;20204;-59
2022/06/08 03:59:14;;;;;;;18.60;5.73;;;14.90;99.90;;;;;;4858891;29;20696;-59
2022/06/08 04:01:40;;;;;;;13.03;5.60;;;15.00;99.90;;;;;;4858736;29;20282;-61
2022/06/08 04:04:06;;;;;;;11.80;5.20;;;15.10;99.90;;;;;;4858991;29;20272;-60
2022/06/08 04:06:32;;;;;;;14.23;5.70;;;15.20;99.90;;;;;;4878082;29;20279;-58
2022/06/08 04:08:57;;;;;;;18.60;5.43;;;15.30;99.90;;;;;;4877633;29;20521;-59
2022/06/08 04:11:23;;;;;;;8.17;5.23;;;15.40;99.90;;;;;;4864915;29;20193;-63
2022/06/08 04:13:49;;;;;;;18.07;5.67;;;15.50;99.90;;;;;;4859755;29;20200;-59
2022/06/08 04:16:15;;;;;;;21.23;6.87;;;15.60;99.90;;;;;;4858814;29;20232;-60
2022/06/08 04:18:41;;;;;;;10.33;5.20;;;15.70;99.90;;;;;;4858346;29;20655;-61
2022/06/08 04:21:09;;;;;;;14.37;5.30;;;15.80;99.90;;;;;;4858734;29;20309;-58
2022/06/08 04:23:37;;;;;;;7.80;4.57;;;15.90;99.90;;;;;;4862168;29;20692;-59
2022/06/08 04:26:03;;;;;;;14.00;5.40;;;15.90;99.90;;;;;;4861735;29;20185;-59
2022/06/08 04:28:29;;;;;;;8.23;4.57;;;16.10;99.90;;;;;;4861704;29;20604;-59
2022/06/08 04:30:56;;;;;;;10.13;5.00;;;16.20;99.90;;;;;;4861632;29;20230;-59
2022/06/08 04:33:22;;;;;;;6.63;3.80;;;16.20;99.90;;;;;;4861672;29;20181;-60
2022/06/08 04:35:48;;;;;;;7.57;4.27;;;16.20;99.90;;;;;;4861171;29;20185;-60
2022/06/08 04:38:15;;;;;;;6.80;4.00;;;16.30;99.90;;;;;;4861046;29;20251;-60
2022/06/08 04:40:41;;;;;;;10.90;4.50;;;16.40;99.90;;;;;;4861047;29;20197;-59
2022/06/08 04:43:08;;;;;;;17.00;5.47;;;16.40;99.90;;;;;;4860630;29;20191;-61
2022/06/08 04:45:36;;;;;;;29.40;7.23;;;16.60;99.90;;;;;;4860536;29;20193;-60
2022/06/08 04:48:04;;;;;;;10.33;5.23;;;16.70;99.90;;;;;;4860748;29;20201;-61
2022/06/08 04:50:30;;;;;;;11.47;4.70;;;16.80;99.90;;;;;;4860400;29;20237;-59
2022/06/08 04:52:56;;;;;;;13.50;5.13;;;16.90;99.90;;;;;;4860482;29;20185;-62
2022/06/08 04:55:22;;;;;;;7.57;3.90;;;17.00;99.90;;;;;;4840321;29;20190;-60
2022/06/08 04:57:49;;;;;;;14.97;6.30;;;17.10;99.90;;;;;;4855957;29;20209;-60
2022/06/08 05:00:21;;;;;;;11.43;5.50;;;17.20;99.90;;;;;;4859483;29;20220;-60
2022/06/08 05:02:48;;;;;;;15.50;4.97;;;17.30;99.90;;;;;;4859558;29;20220;-60
2022/06/08 05:05:21;;;;;;;13.37;4.83;;;17.40;99.90;;;;;;4869145;29;20232;-60
2022/06/08 05:07:48;;;;;;;11.07;4.63;;;17.50;99.90;;;;;;4878293;29;20624;-64
2022/06/08 05:10:15;;;;;;;11.57;4.87;;;17.60;99.90;;;;;;4874863;29;20678;-60
2022/06/08 05:12:41;;;;;;;11.23;5.03;;;17.70;99.90;;;;;;4859499;29;20208;-60
2022/06/08 05:15:10;;;;;;;16.27;4.53;;;17.90;99.90;;;;;;4859937;29;20278;-61
2022/06/08 05:17:37;;;;;;;14.27;4.27;;;18.00;99.90;;;;;;4859977;29;20181;-60
2022/06/08 05:20:04;;;;;;;15.70;4.10;;;18.10;99.90;;;;;;4860457;29;20189;-61
2022/06/08 05:22:30;;;;;;;18.30;5.63;;;18.20;99.90;;;;;;4860682;29;20241;-61
2022/06/08 05:24:56;;;;;;;18.07;4.47;;;18.30;99.90;;;;;;4841126;29;20190;-62
2022/06/08 05:27:22;;;;;;;16.97;4.00;;;18.50;99.90;;;;;;4860022;29;20200;-60
2022/06/08 05:29:48;;;;;;;21.03;5.33;;;18.60;99.90;;;;;;4859953;29;20241;-61
2022/06/08 05:32:14;;;;;;;10.47;3.97;;;18.70;99.90;;;;;;4860494;29;20196;-62
2022/06/08 05:34:40;;;;;;;17.50;4.50;;;18.70;99.90;;;;;;4861065;29;20184;-59
2022/06/08 05:37:06;;;;;;;10.20;4.33;;;18.80;99.90;;;;;;4858980;29;20304;-69
2022/06/08 05:39:31;;;;;;;17.80;4.77;;;18.80;99.90;;;;;;4857032;29;20225;-63
2022/06/08 05:41:57;;;;;;;22.07;4.63;;;19.00;99.90;;;;;;4843296;29;20221;-59
2022/06/08 05:44:23;;;;;;;16.60;4.13;;;19.00;99.90;;;;;;4859199;29;20201;-60
2022/06/08 05:46:50;;;;;;;16.53;5.00;;;19.20;99.90;;;;;;4827759;29;20193;-60
2022/06/08 05:49:17;;;;;;;12.90;4.63;;;19.30;99.90;;;;;;4859734;29;20212;-60
2022/06/08 05:51:42;;;;;;;10.97;4.87;;;19.40;99.90;;;;;;4834388;29;20224;-60
2022/06/08 05:54:09;;;;;;;13.52;5.95;;;19.50;99.90;;;;;;4858350;29;20638;-61
2022/06/08 05:56:35;;;;;;;17.70;5.47;;;19.70;99.90;;;;;;4858825;29;20677;-61
2022/06/08 05:59:01;;;;;;;16.83;5.57;;;19.90;99.90;;;;;;4859253;29;20319;-60
2022/06/08 06:01:27;;;;;;;18.67;6.50;;;20.00;99.90;;;;;;4804956;29;20206;-63
2022/06/08 06:03:53;;;;;;;14.93;6.20;;;20.20;99.90;;;;;;4831666;29;20262;-62
2022/06/08 06:06:18;;;;;;;10.85;4.45;;;20.40;99.90;;;;;;4827656;29;20185;-59
2022/06/08 06:08:45;;;;;;;19.38;5.18;;;20.50;99.90;;;;;;4821296;29;20632;-62
2022/06/08 06:11:13;;;;;;;18.33;4.65;;;20.50;99.90;;;;;;4856903;29;20550;-60
2022/06/08 06:13:40;;;;;;;17.50;5.40;;;20.70;99.90;;;;;;4858826;29;20188;-62
2022/06/08 06:16:06;;;;;;;22.15;5.68;;;20.90;99.90;;;;;;4859084;29;20626;-60
2022/06/08 06:18:32;;;;;;;21.85;5.25;;;21.00;99.90;;;;;;4858628;29;20212;-60
2022/06/08 06:20:57;;;;;;;24.35;5.72;;;21.20;99.90;;;;;;4858602;29;20261;-59
2022/06/08 06:23:25;;;;;;;18.42;5.15;;;21.40;99.90;;;;;;4857916;29;20268;-56
2022/06/08 06:25:51;;;;;;;20.85;4.93;;;21.60;99.90;;;;;;4859035;29;20205;-64
2022/06/08 06:28:16;;;;;;;9.98;3.47;;;21.70;99.20;;;;;;4858269;29;20253;-59
2022/06/08 06:30:42;;;;;;;35.10;5.68;;;21.80;96.90;;;;;;4840814;29;20729;-61
2022/06/08 06:33:11;;;;;;;12.55;3.40;;;22.00;96.40;;;;;;4857522;29;20205;-61
2022/06/08 06:35:37;;;;;;;17.40;4.00;;;22.10;96.30;;;;;;4858261;29;20603;-62
2022/06/08 06:38:03;;;;;;;11.27;3.17;;;22.20;96.50;;;;;;4857737;29;20251;-63
2022/06/08 06:40:29;;;;;;;7.57;3.55;;;22.20;96.60;;;;;;4841843;29;21034;-61
2022/06/08 06:42:55;;;;;;;14.27;4.00;;;22.30;96.50;;;;;;4857806;29;20201;-61
2022/06/08 06:45:21;;;;;;;13.32;3.50;;;22.40;94.90;;;;;;4857452;29;20681;-60
2022/06/08 06:47:47;;;;;;;9.15;2.97;;;22.60;94.20;;;;;;4857781;29;20228;-59
2022/06/08 06:50:16;;;;;;;13.52;3.20;;;22.70;92.50;;;;;;4857614;29;20197;-60
2022/06/08 06:52:44;;;;;;;19.38;3.80;;;22.90;91.90;;;;;;4857808;29;20658;-59
2022/06/08 06:55:28;;;;;;;15.90;3.83;;;23.00;91.80;;;;;;4857884;29;20185;-60
2022/06/08 06:58:03;;;;;;;19.98;4.70;;;23.00;91.60;;;;;;4858504;29;20224;-59
2022/06/08 07:00:29;;;;;;;12.57;4.95;;;23.10;91.00;;;;;;4858192;29;20235;-60
2022/06/08 07:02:55;;;;;;;17.63;4.75;;;23.20;90.30;;;;;;4858098;29;20301;-65
2022/06/08 07:05:26;;;;;;;11.32;4.38;;;23.10;89.10;;;;;;4858298;29;20232;-63
2022/06/08 07:07:52;;;;;;;13.48;4.60;;;23.20;88.80;;;;;;4856786;29;20685;-59
2022/06/08 07:10:18;;;;;;;13.18;4.18;;;23.30;88.70;;;;;;4857390;29;20258;-64
2022/06/08 07:12:44;;;;;;;11.20;3.80;;;23.50;89.60;;;;;;4857429;29;20230;-62
2022/06/08 07:15:16;;;;;;;8.27;3.95;;;23.60;88.00;;;;;;4857948;29;20200;-58
2022/06/08 07:17:42;;;;;;;18.08;4.38;;;23.70;87.00;;;;;;4832451;29;20205;-60
2022/06/08 07:20:09;;;;;;;11.75;4.18;;;23.80;87.40;;;;;;4857055;29;20300;-59
2022/06/08 07:22:35;;;;;;;11.73;4.07;;;23.90;86.90;;;;;;4835542;29;20204;-60
2022/06/08 07:25:00;;;;;;;9.05;3.20;;;24.00;85.70;;;;;;4833462;29;20564;-60
2022/06/08 07:27:26;;;;;;;19.52;4.32;;;23.90;86.60;;;;;;4857849;29;20277;-59
2022/06/08 07:29:52;;;;;;;13.23;3.53;;;24.00;85.90;;;;;;4857843;29;20256;-60
2022/06/08 07:32:18;;;;;;;9.60;3.80;;;24.10;85.20;;;;;;4834575;29;20201;-64
2022/06/08 07:34:44;;;;;;;16.67;4.60;;;24.20;85.10;;;;;;4853182;29;20201;-66
2022/06/08 07:37:10;;;;;;;18.95;4.80;;;24.30;79.30;;;;;;4856390;29;20587;-64
2022/06/08 07:39:35;;;;;;;13.70;4.30;;;24.30;76.70;;;;;;4857975;29;20232;-64
2022/06/08 07:42:02;;;;;;;49.80;6.68;;;24.30;77.20;;;;;;4857935;29;20205;-63
2022/06/08 07:44:28;;;;;;;13.88;4.70;;;24.30;78.20;;;;;;4857613;29;20743;-65
2022/06/08 07:46:54;;;;;;;10.25;4.32;;;24.50;77.70;;;;;;4857004;29;20378;-66
2022/06/08 07:49:39;;;;;;;26.20;5.63;;;24.50;75.80;;;;;;4857995;29;20549;-63
2022/06/08 07:52:15;;;;;;;7.88;4.05;;;24.50;75.20;;;;;;4857240;29;20661;-64
2022/06/08 07:54:43;;;;;;;10.05;3.90;;;24.60;75.00;;;;;;4857469;29;20225;-64
2022/06/08 07:57:17;;;;;;;7.68;4.38;;;24.60;75.10;;;;;;4857212;29;20197;-64
2022/06/08 07:59:43;;;;;;;21.60;4.65;;;24.60;75.90;;;;;;4839957;29;20224;-64
2022/06/08 08:02:10;;;;;;;14.35;4.75;;;24.70;76.60;;;;;;4857558;29;20227;-65
2022/06/08 08:04:37;;;;;;;14.50;4.72;;;24.80;77.40;;;;;;4857582;29;20189;-65
2022/06/08 08:07:03;;;;;;;14.88;4.60;;;24.80;76.80;;;;;;4857263;29;20690;-65
2022/06/08 08:09:33;;;;;;;7.78;4.22;;;24.90;77.10;;;;;;4857649;29;20200;-65
2022/06/08 08:12:00;;;;;;;18.45;5.35;;;25.00;76.00;;;;;;4856719;29;20607;-65
2022/06/08 08:14:26;;;;;;;13.43;5.07;;;25.00;76.90;;;;;;4857163;29;20220;-64
2022/06/08 08:16:53;;;;;;;9.23;4.63;;;25.00;74.60;;;;;;4857057;29;20654;-64
2022/06/08 08:19:20;;;;;;;6.60;3.83;;;25.00;74.80;;;;;;4840828;29;20611;-65
2022/06/08 08:21:47;;;;;;;11.27;3.90;;;25.00;72.10;;;;;;4856982;29;20199;-65
2022/06/08 08:24:14;;;;;;;17.63;4.90;;;25.00;73.70;;;;;;4857089;29;20629;-64
2022/06/08 08:26:40;;;;;;;8.55;3.60;;;25.10;73.50;;;;;;4856772;29;20193;-64
2022/06/08 08:29:06;;;;;;;18.98;4.82;;;25.30;73.90;;;;;;4856276;29;20253;-67
2022/06/08 08:31:32;;;;;;;9.48;3.95;;;25.30;74.60;;;;;;4857017;29;20791;-64
2022/06/08 08:33:59;;;;;;;18.23;6.13;;;25.30;71.70;;;;;;4856766;29;20272;-65
2022/06/08 08:36:25;;;;;;;9.25;4.30;;;25.30;71.40;;;;;;4857055;29;20293;-65
2022/06/08 08:38:51;;;;;;;23.30;5.65;;;25.20;70.80;;;;;;4855266;29;20221;-65
2022/06/08 08:44:42;;;;;;;6.72;3.67;;;25.40;70.50;;;;;;4857075;29;20196;-64
2022/06/08 08:47:40;;;;;;;12.73;4.18;;;25.50;69.90;;;;;;4856451;29;20251;-64
2022/06/08 08:50:16;;;;;;;11.48;4.40;;;25.40;69.60;;;;;;4857124;29;20245;-66
2022/06/08 08:53:24;;;;;;;8.05;3.88;;;25.40;69.20;;;;;;4838737;29;21063;-64
2022/06/08 08:56:16;;;;;;;15.90;4.30;;;25.50;68.50;;;;;;4791553;29;20306;-64
2022/06/08 08:58:45;;;;;;;14.38;4.03;;;25.60;69.20;;;;;;4784566;29;20262;-66
2022/06/08 09:01:26;;;;;;;11.10;4.28;;;25.60;69.00;;;;;;4834662;29;20592;-65
2022/06/08 09:04:15;;;;;;;13.32;4.38;;;25.40;68.30;;;;;;4855618;29;20197;-65
2022/06/08 09:06:40;;;;;;;8.10;4.07;;;25.50;69.40;;;;;;4856088;29;20216;-65
2022/06/08 09:09:21;;;;;;;26.45;5.30;;;25.60;68.20;;;;;;4859321;29;20228;-67
2022/06/08 09:11:47;;;;;;;19.42;4.22;;;25.70;68.50;;;;;;4859608;29;20634;-65
2022/06/08 09:14:25;;;;;;;19.52;4.25;;;25.80;68.20;;;;;;4860331;29;20193;-64
2022/06/08 09:17:09;;;;;;;12.32;3.42;;;25.80;67.20;;;;;;4859824;29;20192;-64
2022/06/08 09:19:43;;;;;;;8.25;3.72;;;25.70;67.60;;;;;;4860061;29;20221;-67
2022/06/08 09:22:09;;;;;;;13.68;3.72;;;25.80;67.70;;;;;;4859623;29;20205;-65
2022/06/08 09:24:53;;;;;;;10.55;3.67;;;25.80;67.80;;;;;;4859462;29;20208;-65
2022/06/08 09:27:27;;;;;;;10.10;3.97;;;26.00;67.70;;;;;;4852734;29;20543;-64
2022/06/08 09:30:13;;;;;;;11.63;3.88;;;26.10;66.80;;;;;;4858853;29;20358;-66
2022/06/08 09:32:41;;;;;;;6.65;3.30;;;26.20;67.20;;;;;;4858981;29;20673;-65
2022/06/08 09:35:37;;;;;;;11.43;4.68;;;26.40;67.50;;;;;;4858482;29;20204;-66
2022/06/08 09:38:13;;;;;;;19.85;5.43;;;26.50;66.60;;;;;;4858496;29;20236;-66
2022/06/08 09:41:03;;;;;;;15.90;4.60;;;26.60;65.40;;;;;;4859009;29;20227;-65
2022/06/08 09:43:29;;;;;;;5.28;3.22;;;26.70;64.60;;;;;;4859036;29;20236;-64
2022/06/08 09:46:00;;;;;;;8.32;3.45;;;26.80;64.50;;;;;;4859167;29;20185;-64
2022/06/08 09:52:05;;;;;;;13.98;3.70;;;26.40;65.90;;;;;;4858708;29;20271;-65
2022/06/08 09:54:30;;;;;;;8.00;3.92;;;26.60;66.00;;;;;;4841659;29;20291;-64
2022/06/08 09:57:20;;;;;;;18.08;3.97;;;26.90;65.60;;;;;;4858822;29;20586;-65
2022/06/08 10:00:11;;;;;;;10.40;3.70;;;27.00;65.10;;;;;;4842327;29;20220;-64
2022/06/08 10:02:55;;;;;;;9.15;3.42;;;26.90;65.00;;;;;;4854138;29;20688;-64
2022/06/08 10:05:25;;;;;;;7.63;3.20;;;26.90;65.80;;;;;;4852061;29;20184;-65
2022/06/08 10:08:19;;;;;;;14.90;3.78;;;26.80;66.00;;;;;;4840656;29;20325;-64
2022/06/08 10:11:34;;;;;;;11.57;3.67;;;26.70;66.40;;;;;;4858559;29;20653;-64
2022/06/08 10:14:02;;;;;;;18.23;4.07;;;26.70;66.60;;;;;;4854682;29;20205;-64
2022/06/08 10:16:33;;;;;;;12.82;3.70;;;26.70;67.50;;;;;;4859139;29;20185;-63
2022/06/08 10:19:06;;;;;;;17.17;4.18;;;26.70;67.10;;;;;;4858778;29;20219;-63
2022/06/08 10:21:38;;;;;;;10.90;3.72;;;26.70;68.10;;;;;;4858681;29;20267;-63
2022/06/08 10:24:16;;;;;;;11.73;3.55;;;26.80;67.50;;;;;;4859249;29;20197;-63
2022/06/08 10:26:44;;;;;;;12.52;3.00;;;27.00;66.50;;;;;;4858704;29;20532;-64
2022/06/08 10:29:32;;;;;;;15.73;4.50;;;27.10;64.00;;;;;;4858901;29;20244;-65
2022/06/08 10:32:02;;;;;;;11.52;3.22;;;27.10;63.40;;;;;;4858690;29;20189;-64
2022/06/08 10:34:33;;;;;;;6.95;3.15;;;27.10;65.30;;;;;;4858386;29;20201;-64
2022/06/08 10:37:16;;;;;;;10.20;3.83;;;27.30;66.50;;;;;;4857793;29;20279;-64
2022/06/08 10:39:43;;;;;;;7.88;2.97;;;27.40;65.50;;;;;;4858440;29;20619;-64
2022/06/08 10:45:23;;;;;;;8.80;3.60;;;27.30;63.30;;;;;;4858134;29;20283;-63
2022/06/08 10:48:11;;;;;;;6.35;3.15;;;27.20;62.80;;;;;;4858327;29;20255;-64
2022/06/08 10:50:40;;;;;;;8.45;4.30;;;27.30;64.90;;;;;;4858424;29;20253;-64
2022/06/08 10:56:23;;;;;;;12.18;4.22;;;27.50;64.60;;;;;;4834246;29;20435;-62
2022/06/08 10:59:16;;;;;;;14.85;4.20;;;27.60;62.60;;;;;;4856997;29;20662;-65
2022/06/08 11:01:54;;;;;;;9.30;3.03;;;27.80;62.60;;;;;;4857564;29;20212;-65
2022/06/08 11:04:35;;;;;;;9.10;3.30;;;27.90;63.20;;;;;;4849745;29;20201;-64
2022/06/08 11:07:05;;;;;;;7.18;3.20;;;28.10;61.20;;;;;;4857826;29;20228;-74
2022/06/08 11:09:34;;;;;;;7.47;2.85;;;28.10;59.90;;;;;;4857909;29;20265;-63
2022/06/08 11:12:01;;;;;;;9.70;3.28;;;28.20;57.90;;;;;;4858173;29;20188;-63
2022/06/08 11:14:51;;;;;;;19.13;3.83;;;28.30;58.90;;;;;;4858148;29;20371;-65
2022/06/08 11:17:39;;;;;;;13.57;3.42;;;28.70;59.60;;;;;;4857375;29;20244;-65
2022/06/08 11:20:40;;;;;;;15.30;3.95;;;28.90;58.20;;;;;;4857174;29;20246;-64
2022/06/08 11:23:16;;;;;;;8.18;2.70;;;29.60;57.90;;;;;;4857024;29;20292;-63
2022/06/08 11:25:52;;;;;;;11.90;3.10;;;30.90;55.70;;;;;;4856610;29;20184;-67
2022/06/08 11:28:40;;;;;;;12.35;3.75;;;32.40;52.90;;;;;;4857974;29;20295;-67
2022/06/08 11:31:29;;;;;;;16.58;4.10;;;33.90;50.40;;;;;;4839807;29;20285;-63
2022/06/08 11:34:20;;;;;;;9.07;3.42;;;34.60;48.50;;;;;;4809063;29;20650;-65
2022/06/08 11:37:23;;;;;;;9.80;3.10;;;35.30;47.30;;;;;;4838787;29;20271;-63
2022/06/08 11:40:10;;;;;;;10.55;3.08;;;35.10;43.30;;;;;;4839088;29;20225;-66
2022/06/08 11:42:46;;;;;;;16.58;3.75;;;35.90;43.80;;;;;;4839821;29;20197;-64
2022/06/08 11:45:18;;;;;;;4.05;2.90;;;36.20;43.30;;;;;;4838583;29;20200;-64
2022/06/08 11:47:53;;;;;;;19.08;3.95;;;37.00;41.80;;;;;;4839566;29;20199;-65
2022/06/08 11:50:23;;;;;;;7.43;3.25;;;36.70;41.10;;;;;;4839514;29;20669;-64
2022/06/08 11:53:01;;;;;;;7.00;3.15;;;37.00;42.80;;;;;;4838746;29;20279;-64
2022/06/08 11:55:29;;;;;;;11.50;3.90;;;36.90;41.90;;;;;;4839480;29;20265;-64
2022/06/08 11:58:06;;;;;;;14.88;3.97;;;36.60;42.20;;;;;;4822356;29;20623;-65
2022/06/08 12:00:36;;;;;;;13.23;3.65;;;36.90;41.80;;;;;;4839108;29;20307;-64
2022/06/08 12:03:42;;;;;;;7.70;3.78;;;37.10;41.50;;;;;;4838932;29;20296;-64
2022/06/08 12:06:14;;;;;;;14.40;4.72;;;38.00;40.70;;;;;;4837607;29;20205;-62
2022/06/08 12:08:44;;;;;;;13.38;3.90;;;38.20;39.60;;;;;;4838232;29;20680;-64
2022/06/08 12:11:13;;;;;;;12.18;3.60;;;38.20;40.00;;;;;;4838863;29;20272;-66
2022/06/08 12:13:50;;;;;;;14.80;3.72;;;38.30;39.30;;;;;;4839618;29;20265;-65
2022/06/08 12:16:30;;;;;;;12.13;3.85;;;38.40;39.50;;;;;;4839147;29;20200;-62
2022/06/08 12:19:18;;;;;;;7.22;3.78;;;39.80;37.30;;;;;;4838381;29;20317;-63
2022/06/08 12:21:47;;;;;;;7.15;4.00;;;40.70;35.70;;;;;;4837475;29;20213;-70
2022/06/08 12:24:12;;;;;;;17.15;5.22;;;41.10;35.50;;;;;;4837818;29;20621;-66
2022/06/08 12:26:51;;;;;;;17.05;4.13;;;41.20;35.70;;;;;;4838819;29;20224;-64
2022/06/08 12:29:32;;;;;;;17.60;4.25;;;41.10;35.50;;;;;;4844101;29;20246;-62
2022/06/08 12:32:07;;;;;;;13.52;5.03;;;40.20;35.50;;;;;;4856593;29;20185;-62
2022/06/08 12:34:53;;;;;;;15.00;4.35;;;40.60;35.10;;;;;;4856706;29;20192;-63
2022/06/08 12:37:30;;;;;;;15.25;4.43;;;41.80;34.10;;;;;;4854245;29;20252;-64
2022/06/08 12:40:00;;;;;;;9.95;4.65;;;41.70;33.40;;;;;;4856308;29;20216;-60
2022/06/08 12:42:31;;;;;;;14.63;4.72;;;42.00;33.30;;;;;;4857001;29;20192;-62
2022/06/08 12:44:58;;;;;;;11.07;3.75;;;41.40;33.80;;;;;;4859427;29;20263;-61
2022/06/08 12:47:31;;;;;;;16.08;4.57;;;40.90;33.60;;;;;;4860518;29;20291;-61
2022/06/08 12:50:19;;;;;;;14.95;4.30;;;40.60;33.90;;;;;;4859652;29;20260;-61
2022/06/08 12:52:46;;;;;;;11.48;3.95;;;40.70;34.20;;;;;;4859713;29;20733;-71
2022/06/08 12:55:16;;;;;;;11.80;5.00;;;41.50;33.60;;;;;;4860279;29;20211;-62
2022/06/08 12:57:44;;;;;;;10.52;5.20;;;40.90;32.90;;;;;;4860697;29;20256;-60
2022/06/08 13:00:30;;;;;;;9.48;4.22;;;39.90;33.60;;;;;;4859953;29;20211;-59
2022/06/08 13:02:59;;;;;;;23.75;5.57;;;40.20;33.70;;;;;;4859253;29;20238;-59
2022/06/08 13:05:31;;;;;;;19.15;5.25;;;40.80;33.50;;;;;;4859703;29;20325;-63
2022/06/08 13:07:58;;;;;;;18.35;4.32;;;40.80;34.10;;;;;;4859219;29;20546;-61
2022/06/08 13:10:27;;;;;;;11.10;4.28;;;41.20;33.60;;;;;;4860078;29;20200;-61
2022/06/08 13:12:58;;;;;;;13.48;3.97;;;40.50;33.30;;;;;;4859357;29;20235;-62
2022/06/08 13:15:32;;;;;;;10.88;4.38;;;40.10;33.30;;;;;;4859695;29;20240;-62
2022/06/08 13:17:59;;;;;;;9.73;4.90;;;40.40;33.30;;;;;;4858834;29;20196;-62
2022/06/08 13:20:31;;;;;;;10.73;4.50;;;41.50;33.20;;;;;;4858763;29;20287;-59